sensor_id;sensor_type;location;lat;lon;timestamp;P1;durP1;ratioP1;P2;durP2;ratioP2
58242;SDS011;50118;53.232;8.252;2022-09-27T00:01:32;15.10;;;8.20;;
58242;SDS011;50118;53.232;8.252;2022-09-27T00:03:58;17.30;;;7.95;;
58242;SDS011;50118;53.232;8.252;2022-09-27T00:06:25;16.95;;;8.15;;
58242;SDS011;50118;53.232;8.252;2022-09-27T00:08:53;19.38;;;8.57;;
58242;SDS011;50118;53.232;8.252;2022-09-27T00:11:22;17.77;;;7.90;;
58242;SDS011;50118;53.232;8.252;2022-09-27T00:13:51;15.27;;;7.72;;
58242;SDS011;50118;53.232;8.252;2022-09-27T00:16:17;15.25;;;7.60;;
58242;SDS011;50118;53.232;8.252;2022-09-27T00:18:42;14.52;;;6.85;;
58242;SDS011;50118;53.232;8.252;2022-09-27T00:21:09;11.40;;;6.65;;
58242;SDS011;50118;53.232;8.252;2022-09-27T00:23:36;15.75;;;7.40;;
58242;SDS011;50118;53.232;8.252;2022-09-27T00:26:02;13.75;;;6.47;;
58242;SDS011;50118;53.232;8.252;2022-09-27T00:28:28;15.40;;;7.28;;
58242;SDS011;50118;53.232;8.252;2022-09-27T00:30:56;13.82;;;6.85;;
58242;SDS011;50118;53.232;8.252;2022-09-27T00:33:23;15.13;;;6.90;;
58242;SDS011;50118;53.232;8.252;2022-09-27T00:35:48;14.88;;;6.80;;
58242;SDS011;50118;53.232;8.252;2022-09-27T00:38:14;12.00;;;6.35;;
58242;SDS011;50118;53.232;8.252;2022-09-27T00:40:39;12.05;;;6.10;;
58242;SDS011;50118;53.232;8.252;2022-09-27T00:43:23;11.52;;;5.65;;
58242;SDS011;50118;53.232;8.252;2022-09-27T00:45:52;12.10;;;5.35;;
58242;SDS011;50118;53.232;8.252;2022-09-27T00:48:25;11.07;;;5.28;;
58242;SDS011;50118;53.232;8.252;2022-09-27T00:50:56;9.52;;;5.03;;
58242;SDS011;50118;53.232;8.252;2022-09-27T00:56:26;7.68;;;4.10;;
58242;SDS011;50118;53.232;8.252;2022-09-27T00:58:56;9.00;;;4.22;;
58242;SDS011;50118;53.232;8.252;2022-09-27T01:01:28;8.98;;;4.50;;
58242;SDS011;50118;53.232;8.252;2022-09-27T01:03:58;6.72;;;3.40;;
58242;SDS011;50118;53.232;8.252;2022-09-27T01:06:27;10.50;;;3.80;;
58242;SDS011;50118;53.232;8.252;2022-09-27T01:08:53;8.63;;;3.80;;
58242;SDS011;50118;53.232;8.252;2022-09-27T01:11:34;5.15;;;3.10;;
58242;SDS011;50118;53.232;8.252;2022-09-27T01:14:58;6.60;;;3.40;;
58242;SDS011;50118;53.232;8.252;2022-09-27T01:34:34;3.90;;;2.13;;
58242;SDS011;50118;53.232;8.252;2022-09-27T01:36:58;5.43;;;1.92;;
58242;SDS011;50118;53.232;8.252;2022-09-27T01:45:22;3.80;;;1.77;;
58242;SDS011;50118;53.232;8.252;2022-09-27T01:47:50;4.30;;;2.10;;
58242;SDS011;50118;53.232;8.252;2022-09-27T01:53:11;4.97;;;2.15;;
58242;SDS011;50118;53.232;8.252;2022-09-27T01:55:43;4.55;;;1.70;;
58242;SDS011;50118;53.232;8.252;2022-09-27T02:00:46;4.90;;;1.60;;
58242;SDS011;50118;53.232;8.252;2022-09-27T02:03:15;5.40;;;1.85;;
58242;SDS011;50118;53.232;8.252;2022-09-27T02:06:10;2.30;;;1.15;;
58242;SDS011;50118;53.232;8.252;2022-09-27T02:11:43;4.68;;;1.50;;
58242;SDS011;50118;53.232;8.252;2022-09-27T02:23:00;3.67;;;2.00;;
58242;SDS011;50118;53.232;8.252;2022-09-27T02:25:43;3.25;;;1.58;;
58242;SDS011;50118;53.232;8.252;2022-09-27T02:30:53;4.25;;;1.52;;
58242;SDS011;50118;53.232;8.252;2022-09-27T02:33:20;3.85;;;1.50;;
58242;SDS011;50118;53.232;8.252;2022-09-27T02:35:50;5.40;;;1.67;;
58242;SDS011;50118;53.232;8.252;2022-09-27T02:38:15;3.20;;;1.48;;
58242;SDS011;50118;53.232;8.252;2022-09-27T02:40:42;4.43;;;1.30;;
58242;SDS011;50118;53.232;8.252;2022-09-27T02:43:09;5.78;;;1.40;;
58242;SDS011;50118;53.232;8.252;2022-09-27T02:46:13;3.60;;;1.48;;
58242;SDS011;50118;53.232;8.252;2022-09-27T02:48:42;4.07;;;1.40;;
58242;SDS011;50118;53.232;8.252;2022-09-27T02:59:47;6.47;;;1.83;;
58242;SDS011;50118;53.232;8.252;2022-09-27T03:02:20;6.20;;;1.75;;
58242;SDS011;50118;53.232;8.252;2022-09-27T03:04:54;7.03;;;2.15;;
58242;SDS011;50118;53.232;8.252;2022-09-27T03:07:25;5.63;;;1.83;;
58242;SDS011;50118;53.232;8.252;2022-09-27T03:09:52;5.05;;;1.90;;
58242;SDS011;50118;53.232;8.252;2022-09-27T03:12:18;6.70;;;2.45;;
58242;SDS011;50118;53.232;8.252;2022-09-27T03:14:50;8.73;;;2.40;;
58242;SDS011;50118;53.232;8.252;2022-09-27T03:17:22;6.72;;;2.60;;
58242;SDS011;50118;53.232;8.252;2022-09-27T03:19:48;7.40;;;2.53;;
58242;SDS011;50118;53.232;8.252;2022-09-27T03:22:14;9.30;;;2.80;;
58242;SDS011;50118;53.232;8.252;2022-09-27T03:24:40;9.02;;;2.80;;
58242;SDS011;50118;53.232;8.252;2022-09-27T03:27:05;6.57;;;2.80;;
58242;SDS011;50118;53.232;8.252;2022-09-27T03:29:31;8.70;;;3.40;;
58242;SDS011;50118;53.232;8.252;2022-09-27T03:31:57;9.60;;;3.03;;
58242;SDS011;50118;53.232;8.252;2022-09-27T03:34:22;6.70;;;3.40;;
58242;SDS011;50118;53.232;8.252;2022-09-27T03:36:48;8.43;;;3.25;;
58242;SDS011;50118;53.232;8.252;2022-09-27T03:39:13;6.72;;;3.25;;
58242;SDS011;50118;53.232;8.252;2022-09-27T03:41:39;10.70;;;3.75;;
58242;SDS011;50118;53.232;8.252;2022-09-27T03:44:05;7.43;;;3.10;;
58242;SDS011;50118;53.232;8.252;2022-09-27T03:46:30;7.47;;;2.80;;
58242;SDS011;50118;53.232;8.252;2022-09-27T03:48:56;7.78;;;2.88;;
58242;SDS011;50118;53.232;8.252;2022-09-27T03:51:21;5.82;;;2.75;;
58242;SDS011;50118;53.232;8.252;2022-09-27T03:53:47;8.55;;;2.97;;
58242;SDS011;50118;53.232;8.252;2022-09-27T03:56:13;8.07;;;3.00;;
58242;SDS011;50118;53.232;8.252;2022-09-27T03:58:39;6.68;;;3.13;;
58242;SDS011;50118;53.232;8.252;2022-09-27T04:01:04;8.18;;;2.70;;
58242;SDS011;50118;53.232;8.252;2022-09-27T04:03:29;8.15;;;2.75;;
58242;SDS011;50118;53.232;8.252;2022-09-27T04:05:55;10.48;;;2.90;;
58242;SDS011;50118;53.232;8.252;2022-09-27T04:08:20;6.55;;;2.70;;
58242;SDS011;50118;53.232;8.252;2022-09-27T04:10:48;7.88;;;2.60;;
58242;SDS011;50118;53.232;8.252;2022-09-27T04:13:14;7.15;;;2.70;;
58242;SDS011;50118;53.232;8.252;2022-09-27T04:15:39;4.78;;;2.28;;
58242;SDS011;50118;53.232;8.252;2022-09-27T04:18:06;4.60;;;2.22;;
58242;SDS011;50118;53.232;8.252;2022-09-27T04:20:32;6.22;;;2.40;;
58242;SDS011;50118;53.232;8.252;2022-09-27T04:22:57;6.78;;;2.17;;
58242;SDS011;50118;53.232;8.252;2022-09-27T04:25:23;7.40;;;1.90;;
58242;SDS011;50118;53.232;8.252;2022-09-27T04:27:48;4.20;;;2.17;;
58242;SDS011;50118;53.232;8.252;2022-09-27T04:30:19;4.95;;;1.88;;
58242;SDS011;50118;53.232;8.252;2022-09-27T04:32:46;4.53;;;2.00;;
58242;SDS011;50118;53.232;8.252;2022-09-27T04:35:12;3.70;;;1.75;;
58242;SDS011;50118;53.232;8.252;2022-09-27T04:37:57;7.53;;;2.10;;
58242;SDS011;50118;53.232;8.252;2022-09-27T04:40:23;5.55;;;2.00;;
58242;SDS011;50118;53.232;8.252;2022-09-27T04:42:49;5.10;;;2.10;;
58242;SDS011;50118;53.232;8.252;2022-09-27T04:45:15;4.78;;;2.08;;
58242;SDS011;50118;53.232;8.252;2022-09-27T04:47:43;5.63;;;2.30;;
58242;SDS011;50118;53.232;8.252;2022-09-27T04:50:09;4.18;;;2.13;;
58242;SDS011;50118;53.232;8.252;2022-09-27T04:52:35;6.40;;;2.17;;
58242;SDS011;50118;53.232;8.252;2022-09-27T04:55:01;4.60;;;2.45;;
58242;SDS011;50118;53.232;8.252;2022-09-27T04:57:26;5.10;;;2.70;;
58242;SDS011;50118;53.232;8.252;2022-09-27T04:59:52;3.92;;;2.30;;
58242;SDS011;50118;53.232;8.252;2022-09-27T05:02:17;5.82;;;2.78;;
58242;SDS011;50118;53.232;8.252;2022-09-27T05:04:43;4.10;;;2.20;;
58242;SDS011;50118;53.232;8.252;2022-09-27T05:07:08;3.60;;;2.13;;
58242;SDS011;50118;53.232;8.252;2022-09-27T05:09:33;5.55;;;2.20;;
58242;SDS011;50118;53.232;8.252;2022-09-27T05:11:59;5.80;;;2.30;;
58242;SDS011;50118;53.232;8.252;2022-09-27T05:14:24;5.25;;;2.50;;
58242;SDS011;50118;53.232;8.252;2022-09-27T05:16:51;4.40;;;2.22;;
58242;SDS011;50118;53.232;8.252;2022-09-27T05:19:17;7.80;;;2.20;;
58242;SDS011;50118;53.232;8.252;2022-09-27T05:21:43;6.03;;;2.20;;
58242;SDS011;50118;53.232;8.252;2022-09-27T05:24:08;5.35;;;2.33;;
58242;SDS011;50118;53.232;8.252;2022-09-27T05:26:34;5.45;;;2.63;;
58242;SDS011;50118;53.232;8.252;2022-09-27T05:28:59;5.00;;;2.50;;
58242;SDS011;50118;53.232;8.252;2022-09-27T05:31:25;7.53;;;2.83;;
58242;SDS011;50118;53.232;8.252;2022-09-27T05:33:50;6.35;;;2.88;;
58242;SDS011;50118;53.232;8.252;2022-09-27T05:36:16;8.45;;;2.85;;
58242;SDS011;50118;53.232;8.252;2022-09-27T05:38:42;5.65;;;2.70;;
58242;SDS011;50118;53.232;8.252;2022-09-27T05:41:08;6.80;;;3.05;;
58242;SDS011;50118;53.232;8.252;2022-09-27T05:43:34;5.20;;;2.97;;
58242;SDS011;50118;53.232;8.252;2022-09-27T05:46:00;7.90;;;2.67;;
58242;SDS011;50118;53.232;8.252;2022-09-27T05:48:26;6.78;;;2.88;;
58242;SDS011;50118;53.232;8.252;2022-09-27T05:50:52;6.07;;;2.67;;
58242;SDS011;50118;53.232;8.252;2022-09-27T05:53:18;5.65;;;2.60;;
58242;SDS011;50118;53.232;8.252;2022-09-27T05:55:43;5.00;;;2.40;;
58242;SDS011;50118;53.232;8.252;2022-09-27T05:58:09;5.68;;;2.50;;
58242;SDS011;50118;53.232;8.252;2022-09-27T06:00:36;6.93;;;2.80;;
58242;SDS011;50118;53.232;8.252;2022-09-27T06:03:03;4.78;;;2.40;;
58242;SDS011;50118;53.232;8.252;2022-09-27T06:05:30;6.60;;;2.22;;
58242;SDS011;50118;53.232;8.252;2022-09-27T06:08:02;5.65;;;2.30;;
58242;SDS011;50118;53.232;8.252;2022-09-27T06:10:34;5.65;;;2.10;;
58242;SDS011;50118;53.232;8.252;2022-09-27T06:13:08;11.80;;;5.55;;
58242;SDS011;50118;53.232;8.252;2022-09-27T06:15:36;7.47;;;3.80;;
58242;SDS011;50118;53.232;8.252;2022-09-27T06:18:04;6.28;;;2.42;;
58242;SDS011;50118;53.232;8.252;2022-09-27T06:20:41;3.80;;;2.00;;
58242;SDS011;50118;53.232;8.252;2022-09-27T06:23:07;6.30;;;1.80;;
58242;SDS011;50118;53.232;8.252;2022-09-27T06:25:35;6.03;;;2.03;;
58242;SDS011;50118;53.232;8.252;2022-09-27T06:28:01;5.40;;;1.70;;
58242;SDS011;50118;53.232;8.252;2022-09-27T06:30:28;3.97;;;1.52;;
58242;SDS011;50118;53.232;8.252;2022-09-27T06:32:59;5.00;;;1.50;;
58242;SDS011;50118;53.232;8.252;2022-09-27T06:35:26;3.58;;;1.40;;
58242;SDS011;50118;53.232;8.252;2022-09-27T06:37:53;2.65;;;1.30;;
58242;SDS011;50118;53.232;8.252;2022-09-27T06:40:20;5.80;;;1.63;;
58242;SDS011;50118;53.232;8.252;2022-09-27T06:42:46;5.72;;;1.20;;
58242;SDS011;50118;53.232;8.252;2022-09-27T06:45:12;2.42;;;1.60;;
58242;SDS011;50118;53.232;8.252;2022-09-27T06:47:38;4.50;;;1.27;;
58242;SDS011;50118;53.232;8.252;2022-09-27T06:50:04;3.33;;;1.50;;
58242;SDS011;50118;53.232;8.252;2022-09-27T06:52:33;3.08;;;1.38;;
58242;SDS011;50118;53.232;8.252;2022-09-27T06:55:00;4.85;;;1.33;;
58242;SDS011;50118;53.232;8.252;2022-09-27T06:57:25;2.63;;;1.30;;
58242;SDS011;50118;53.232;8.252;2022-09-27T07:00:10;3.17;;;1.33;;
58242;SDS011;50118;53.232;8.252;2022-09-27T07:02:52;2.95;;;1.20;;
58242;SDS011;50118;53.232;8.252;2022-09-27T07:05:24;2.28;;;1.30;;
58242;SDS011;50118;53.232;8.252;2022-09-27T07:07:50;2.00;;;1.25;;
58242;SDS011;50118;53.232;8.252;2022-09-27T07:10:20;5.53;;;1.40;;
58242;SDS011;50118;53.232;8.252;2022-09-27T07:12:45;3.03;;;1.10;;
58242;SDS011;50118;53.232;8.252;2022-09-27T07:15:12;3.38;;;1.30;;
58242;SDS011;50118;53.232;8.252;2022-09-27T07:17:38;3.88;;;1.30;;
58242;SDS011;50118;53.232;8.252;2022-09-27T07:20:03;3.05;;;1.13;;
58242;SDS011;50118;53.232;8.252;2022-09-27T07:22:29;2.85;;;1.10;;
58242;SDS011;50118;53.232;8.252;2022-09-27T07:24:55;2.80;;;1.27;;
58242;SDS011;50118;53.232;8.252;2022-09-27T07:27:20;4.32;;;1.00;;
58242;SDS011;50118;53.232;8.252;2022-09-27T07:29:46;3.17;;;1.15;;
58242;SDS011;50118;53.232;8.252;2022-09-27T07:32:11;2.58;;;1.10;;
58242;SDS011;50118;53.232;8.252;2022-09-27T07:34:37;2.63;;;1.00;;
58242;SDS011;50118;53.232;8.252;2022-09-27T07:37:03;5.80;;;1.23;;
58242;SDS011;50118;53.232;8.252;2022-09-27T07:39:29;2.85;;;1.10;;
58242;SDS011;50118;53.232;8.252;2022-09-27T07:41:56;2.80;;;1.30;;
58242;SDS011;50118;53.232;8.252;2022-09-27T07:44:21;4.53;;;1.23;;
58242;SDS011;50118;53.232;8.252;2022-09-27T07:46:47;3.60;;;1.45;;
58242;SDS011;50118;53.232;8.252;2022-09-27T07:49:12;4.80;;;1.27;;
58242;SDS011;50118;53.232;8.252;2022-09-27T07:51:38;3.80;;;1.15;;
58242;SDS011;50118;53.232;8.252;2022-09-27T07:54:03;2.00;;;1.10;;
58242;SDS011;50118;53.232;8.252;2022-09-27T07:56:28;3.28;;;1.17;;
58242;SDS011;50118;53.232;8.252;2022-09-27T07:58:54;3.30;;;1.40;;
58242;SDS011;50118;53.232;8.252;2022-09-27T08:01:19;2.10;;;1.20;;
58242;SDS011;50118;53.232;8.252;2022-09-27T08:03:45;4.15;;;1.30;;
58242;SDS011;50118;53.232;8.252;2022-09-27T08:06:10;4.97;;;1.20;;
58242;SDS011;50118;53.232;8.252;2022-09-27T08:08:36;5.18;;;1.70;;
58242;SDS011;50118;53.232;8.252;2022-09-27T08:11:09;3.25;;;1.23;;
58242;SDS011;50118;53.232;8.252;2022-09-27T08:13:40;2.30;;;0.85;;
58242;SDS011;50118;53.232;8.252;2022-09-27T08:16:06;3.10;;;1.13;;
58242;SDS011;50118;53.232;8.252;2022-09-27T08:18:31;2.78;;;1.08;;
58242;SDS011;50118;53.232;8.252;2022-09-27T08:20:57;3.28;;;1.10;;
58242;SDS011;50118;53.232;8.252;2022-09-27T08:23:24;3.55;;;0.90;;
58242;SDS011;50118;53.232;8.252;2022-09-27T08:25:51;3.55;;;0.90;;
58242;SDS011;50118;53.232;8.252;2022-09-27T08:28:17;2.80;;;0.93;;
58242;SDS011;50118;53.232;8.252;2022-09-27T08:30:42;5.50;;;1.00;;
58242;SDS011;50118;53.232;8.252;2022-09-27T08:33:08;1.98;;;0.88;;
58242;SDS011;50118;53.232;8.252;2022-09-27T08:35:33;2.03;;;0.85;;
58242;SDS011;50118;53.232;8.252;2022-09-27T08:38:00;2.05;;;0.70;;
58242;SDS011;50118;53.232;8.252;2022-09-27T08:46:14;1.70;;;0.85;;
58242;SDS011;50118;53.232;8.252;2022-09-27T08:51:51;3.30;;;0.80;;
58242;SDS011;50118;53.232;8.252;2022-09-27T08:54:22;2.92;;;0.70;;
58242;SDS011;50118;53.232;8.252;2022-09-27T08:56:56;3.95;;;0.80;;
58242;SDS011;50118;53.232;8.252;2022-09-27T08:59:28;1.92;;;0.90;;
58242;SDS011;50118;53.232;8.252;2022-09-27T09:01:58;1.95;;;0.80;;
58242;SDS011;50118;53.232;8.252;2022-09-27T09:04:29;1.90;;;0.90;;
58242;SDS011;50118;53.232;8.252;2022-09-27T09:07:05;2.72;;;1.08;;
58242;SDS011;50118;53.232;8.252;2022-09-27T09:24:46;3.42;;;1.17;;
58242;SDS011;50118;53.232;8.252;2022-09-27T09:35:18;1.67;;;1.10;;
58242;SDS011;50118;53.232;8.252;2022-09-27T09:37:52;2.65;;;1.05;;
58242;SDS011;50118;53.232;8.252;2022-09-27T09:43:20;2.53;;;1.20;;
58242;SDS011;50118;53.232;8.252;2022-09-27T09:45:57;2.67;;;1.00;;
58242;SDS011;50118;53.232;8.252;2022-09-27T09:48:36;4.65;;;1.10;;
58242;SDS011;50118;53.232;8.252;2022-09-27T09:51:11;3.20;;;1.38;;
58242;SDS011;50118;53.232;8.252;2022-09-27T09:53:47;3.20;;;1.55;;
58242;SDS011;50118;53.232;8.252;2022-09-27T09:56:29;2.85;;;1.33;;
58242;SDS011;50118;53.232;8.252;2022-09-27T10:01:38;3.92;;;1.40;;
58242;SDS011;50118;53.232;8.252;2022-09-27T10:04:07;3.50;;;1.52;;
58242;SDS011;50118;53.232;8.252;2022-09-27T10:06:39;3.05;;;1.67;;
58242;SDS011;50118;53.232;8.252;2022-09-27T10:09:05;3.97;;;1.70;;
58242;SDS011;50118;53.232;8.252;2022-09-27T10:11:33;4.22;;;1.73;;
58242;SDS011;50118;53.232;8.252;2022-09-27T10:14:04;4.43;;;2.00;;
58242;SDS011;50118;53.232;8.252;2022-09-27T10:16:35;3.63;;;1.95;;
58242;SDS011;50118;53.232;8.252;2022-09-27T10:19:02;6.05;;;1.88;;
58242;SDS011;50118;53.232;8.252;2022-09-27T10:21:29;5.63;;;2.20;;
58242;SDS011;50118;53.232;8.252;2022-09-27T10:24:09;7.38;;;2.30;;
58242;SDS011;50118;53.232;8.252;2022-09-27T10:26:35;4.85;;;2.20;;
58242;SDS011;50118;53.232;8.252;2022-09-27T10:31:48;5.13;;;2.13;;
58242;SDS011;50118;53.232;8.252;2022-09-27T10:34:16;5.43;;;2.17;;
58242;SDS011;50118;53.232;8.252;2022-09-27T10:36:44;4.13;;;2.05;;
58242;SDS011;50118;53.232;8.252;2022-09-27T10:39:20;4.82;;;2.00;;
58242;SDS011;50118;53.232;8.252;2022-09-27T10:41:47;8.50;;;2.33;;
58242;SDS011;50118;53.232;8.252;2022-09-27T10:46:47;5.32;;;2.25;;
58242;SDS011;50118;53.232;8.252;2022-09-27T10:49:19;5.70;;;2.42;;
58242;SDS011;50118;53.232;8.252;2022-09-27T10:51:58;5.28;;;1.85;;
58242;SDS011;50118;53.232;8.252;2022-09-27T10:54:32;4.32;;;1.85;;
58242;SDS011;50118;53.232;8.252;2022-09-27T10:59:30;5.65;;;1.52;;
58242;SDS011;50118;53.232;8.252;2022-09-27T11:01:59;4.05;;;1.77;;
58242;SDS011;50118;53.232;8.252;2022-09-27T11:07:10;6.45;;;2.05;;
58242;SDS011;50118;53.232;8.252;2022-09-27T11:39:05;1.17;;;0.77;;
58242;SDS011;50118;53.232;8.252;2022-09-27T11:42:12;2.75;;;0.80;;
58242;SDS011;50118;53.232;8.252;2022-09-27T11:45:39;2.47;;;0.85;;
58242;SDS011;50118;53.232;8.252;2022-09-27T11:51:17;3.40;;;0.82;;
58242;SDS011;50118;53.232;8.252;2022-09-27T12:01:39;2.17;;;0.90;;
58242;SDS011;50118;53.232;8.252;2022-09-27T12:07:25;1.40;;;0.80;;
58242;SDS011;50118;53.232;8.252;2022-09-27T12:21:21;3.03;;;1.00;;
58242;SDS011;50118;53.232;8.252;2022-09-27T12:30:15;3.45;;;1.50;;
58242;SDS011;50118;53.232;8.252;2022-09-27T12:46:11;1.33;;;0.70;;
58242;SDS011;50118;53.232;8.252;2022-09-27T12:52:14;1.80;;;1.10;;
58242;SDS011;50118;53.232;8.252;2022-09-27T13:06:08;3.08;;;1.13;;
58242;SDS011;50118;53.232;8.252;2022-09-27T13:09:01;2.90;;;1.15;;
58242;SDS011;50118;53.232;8.252;2022-09-27T13:14:28;1.50;;;0.70;;
58242;SDS011;50118;53.232;8.252;2022-09-27T13:16:58;2.28;;;0.88;;
58242;SDS011;50118;53.232;8.252;2022-09-27T13:32:24;1.73;;;0.88;;
58242;SDS011;50118;53.232;8.252;2022-09-27T13:36:00;2.58;;;1.10;;
58242;SDS011;50118;53.232;8.252;2022-09-27T13:38:27;1.45;;;0.98;;
58242;SDS011;50118;53.232;8.252;2022-09-27T13:40:56;1.88;;;0.80;;
58242;SDS011;50118;53.232;8.252;2022-09-27T13:47:49;2.42;;;1.10;;
58242;SDS011;50118;53.232;8.252;2022-09-27T13:50:37;1.08;;;0.90;;
58242;SDS011;50118;53.232;8.252;2022-09-27T13:53:27;1.45;;;0.80;;
58242;SDS011;50118;53.232;8.252;2022-09-27T13:58:39;1.63;;;0.90;;
58242;SDS011;50118;53.232;8.252;2022-09-27T14:01:17;1.95;;;0.70;;
58242;SDS011;50118;53.232;8.252;2022-09-27T14:04:04;1.50;;;0.80;;
58242;SDS011;50118;53.232;8.252;2022-09-27T14:07:03;1.30;;;0.90;;
58242;SDS011;50118;53.232;8.252;2022-09-27T14:09:44;1.05;;;0.52;;
58242;SDS011;50118;53.232;8.252;2022-09-27T14:12:40;0.30;;;0.30;;
58242;SDS011;50118;53.232;8.252;2022-09-27T14:15:08;0.35;;;0.30;;
58242;SDS011;50118;53.232;8.252;2022-09-27T14:17:43;0.82;;;0.40;;
58242;SDS011;50118;53.232;8.252;2022-09-27T14:20:29;0.32;;;0.32;;
58242;SDS011;50118;53.232;8.252;2022-09-27T14:22:57;1.10;;;0.50;;
58242;SDS011;50118;53.232;8.252;2022-09-27T14:25:26;0.85;;;0.38;;
58242;SDS011;50118;53.232;8.252;2022-09-27T14:27:57;0.95;;;0.20;;
58242;SDS011;50118;53.232;8.252;2022-09-27T14:41:11;0.77;;;0.22;;
58242;SDS011;50118;53.232;8.252;2022-09-27T14:50:00;0.80;;;0.50;;
58242;SDS011;50118;53.232;8.252;2022-09-27T14:57:00;0.52;;;0.47;;
58242;SDS011;50118;53.232;8.252;2022-09-27T15:04:12;1.58;;;0.80;;
58242;SDS011;50118;53.232;8.252;2022-09-27T15:06:45;0.50;;;0.50;;
58242;SDS011;50118;53.232;8.252;2022-09-27T15:13:24;1.77;;;0.52;;
58242;SDS011;50118;53.232;8.252;2022-09-27T15:19:39;3.28;;;0.63;;
58242;SDS011;50118;53.232;8.252;2022-09-27T15:25:56;5.60;;;2.50;;
58242;SDS011;50118;53.232;8.252;2022-09-27T15:28:44;2.58;;;1.20;;
58242;SDS011;50118;53.232;8.252;2022-09-27T15:31:12;2.15;;;1.27;;
58242;SDS011;50118;53.232;8.252;2022-09-27T15:33:38;0.80;;;0.63;;
58242;SDS011;50118;53.232;8.252;2022-09-27T15:36:06;1.63;;;0.70;;
58242;SDS011;50118;53.232;8.252;2022-09-27T15:38:40;0.93;;;0.55;;
58242;SDS011;50118;53.232;8.252;2022-09-27T15:41:16;0.85;;;0.47;;
58242;SDS011;50118;53.232;8.252;2022-09-27T15:46:33;3.83;;;1.38;;
58242;SDS011;50118;53.232;8.252;2022-09-27T15:49:16;1.42;;;0.60;;
58242;SDS011;50118;53.232;8.252;2022-09-27T15:51:46;0.40;;;0.40;;
58242;SDS011;50118;53.232;8.252;2022-09-27T15:54:20;1.27;;;0.52;;
58242;SDS011;50118;53.232;8.252;2022-09-27T15:56:47;1.60;;;0.60;;
58242;SDS011;50118;53.232;8.252;2022-09-27T15:59:18;2.88;;;0.93;;
58242;SDS011;50118;53.232;8.252;2022-09-27T16:04:12;0.77;;;0.43;;
58242;SDS011;50118;53.232;8.252;2022-09-27T16:06:39;0.63;;;0.47;;
58242;SDS011;50118;53.232;8.252;2022-09-27T16:09:12;1.20;;;0.50;;
58242;SDS011;50118;53.232;8.252;2022-09-27T16:11:43;1.70;;;0.50;;
58242;SDS011;50118;53.232;8.252;2022-09-27T16:14:12;3.40;;;0.68;;
58242;SDS011;50118;53.232;8.252;2022-09-27T16:16:50;1.67;;;0.80;;
58242;SDS011;50118;53.232;8.252;2022-09-27T16:19:17;0.70;;;0.60;;
58242;SDS011;50118;53.232;8.252;2022-09-27T16:21:42;2.30;;;0.70;;
58242;SDS011;50118;53.232;8.252;2022-09-27T16:24:08;1.67;;;0.82;;
58242;SDS011;50118;53.232;8.252;2022-09-27T16:26:35;1.75;;;0.90;;
58242;SDS011;50118;53.232;8.252;2022-09-27T16:29:00;2.00;;;1.05;;
58242;SDS011;50118;53.232;8.252;2022-09-27T16:31:26;2.10;;;1.10;;
58242;SDS011;50118;53.232;8.252;2022-09-27T16:33:52;5.07;;;2.28;;
58242;SDS011;50118;53.232;8.252;2022-09-27T16:36:17;4.20;;;2.25;;
58242;SDS011;50118;53.232;8.252;2022-09-27T16:38:51;4.38;;;2.20;;
58242;SDS011;50118;53.232;8.252;2022-09-27T16:41:17;4.15;;;1.52;;
58242;SDS011;50118;53.232;8.252;2022-09-27T16:43:44;3.42;;;1.33;;
58242;SDS011;50118;53.232;8.252;2022-09-27T16:46:10;1.98;;;1.20;;
58242;SDS011;50118;53.232;8.252;2022-09-27T16:48:38;2.05;;;1.30;;
58242;SDS011;50118;53.232;8.252;2022-09-27T16:51:05;2.83;;;1.23;;
58242;SDS011;50118;53.232;8.252;2022-09-27T16:53:50;2.72;;;1.40;;
58242;SDS011;50118;53.232;8.252;2022-09-27T16:56:15;2.22;;;1.40;;
58242;SDS011;50118;53.232;8.252;2022-09-27T16:58:42;2.00;;;1.20;;
58242;SDS011;50118;53.232;8.252;2022-09-27T17:01:08;2.67;;;1.55;;
58242;SDS011;50118;53.232;8.252;2022-09-27T17:03:33;2.55;;;1.50;;
58242;SDS011;50118;53.232;8.252;2022-09-27T17:06:02;3.42;;;1.40;;
58242;SDS011;50118;53.232;8.252;2022-09-27T17:08:30;4.43;;;1.15;;
58242;SDS011;50118;53.232;8.252;2022-09-27T17:10:55;2.83;;;1.30;;
58242;SDS011;50118;53.232;8.252;2022-09-27T17:13:21;1.98;;;1.27;;
58242;SDS011;50118;53.232;8.252;2022-09-27T17:15:47;3.65;;;1.45;;
58242;SDS011;50118;53.232;8.252;2022-09-27T17:18:13;2.10;;;1.08;;
58242;SDS011;50118;53.232;8.252;2022-09-27T17:20:38;3.15;;;1.40;;
58242;SDS011;50118;53.232;8.252;2022-09-27T17:23:04;2.03;;;1.30;;
58242;SDS011;50118;53.232;8.252;2022-09-27T17:25:30;3.00;;;1.67;;
58242;SDS011;50118;53.232;8.252;2022-09-27T17:27:56;2.67;;;1.73;;
58242;SDS011;50118;53.232;8.252;2022-09-27T17:30:21;3.20;;;2.08;;
58242;SDS011;50118;53.232;8.252;2022-09-27T17:32:47;2.67;;;1.60;;
58242;SDS011;50118;53.232;8.252;2022-09-27T17:35:13;3.50;;;2.22;;
58242;SDS011;50118;53.232;8.252;2022-09-27T17:37:38;3.38;;;2.33;;
58242;SDS011;50118;53.232;8.252;2022-09-27T17:40:04;4.03;;;2.60;;
58242;SDS011;50118;53.232;8.252;2022-09-27T17:42:29;3.45;;;2.17;;
58242;SDS011;50118;53.232;8.252;2022-09-27T17:44:55;3.30;;;1.92;;
58242;SDS011;50118;53.232;8.252;2022-09-27T17:47:20;4.95;;;2.20;;
58242;SDS011;50118;53.232;8.252;2022-09-27T17:50:04;3.55;;;1.83;;
58242;SDS011;50118;53.232;8.252;2022-09-27T17:52:49;2.60;;;1.60;;
58242;SDS011;50118;53.232;8.252;2022-09-27T17:55:15;2.50;;;1.50;;
58242;SDS011;50118;53.232;8.252;2022-09-27T17:57:41;3.10;;;1.60;;
58242;SDS011;50118;53.232;8.252;2022-09-27T18:00:06;2.10;;;1.50;;
58242;SDS011;50118;53.232;8.252;2022-09-27T18:02:33;2.35;;;1.40;;
58242;SDS011;50118;53.232;8.252;2022-09-27T18:04:58;3.88;;;1.67;;
58242;SDS011;50118;53.232;8.252;2022-09-27T18:07:24;3.20;;;1.70;;
58242;SDS011;50118;53.232;8.252;2022-09-27T18:09:50;2.53;;;1.55;;
58242;SDS011;50118;53.232;8.252;2022-09-27T18:12:15;4.78;;;2.13;;
58242;SDS011;50118;53.232;8.252;2022-09-27T18:14:41;3.38;;;1.80;;
58242;SDS011;50118;53.232;8.252;2022-09-27T18:17:07;5.18;;;2.17;;
58242;SDS011;50118;53.232;8.252;2022-09-27T18:19:37;3.25;;;1.80;;
58242;SDS011;50118;53.232;8.252;2022-09-27T18:22:03;3.80;;;1.60;;
58242;SDS011;50118;53.232;8.252;2022-09-27T18:24:28;2.60;;;1.50;;
58242;SDS011;50118;53.232;8.252;2022-09-27T18:26:55;2.35;;;1.58;;
58242;SDS011;50118;53.232;8.252;2022-09-27T18:29:21;3.08;;;1.70;;
58242;SDS011;50118;53.232;8.252;2022-09-27T18:31:46;3.42;;;1.80;;
58242;SDS011;50118;53.232;8.252;2022-09-27T18:34:12;2.67;;;1.60;;
58242;SDS011;50118;53.232;8.252;2022-09-27T18:36:38;3.63;;;1.50;;
58242;SDS011;50118;53.232;8.252;2022-09-27T18:39:09;3.47;;;1.80;;
58242;SDS011;50118;53.232;8.252;2022-09-27T18:41:41;3.13;;;1.55;;
58242;SDS011;50118;53.232;8.252;2022-09-27T18:44:06;3.28;;;1.70;;
58242;SDS011;50118;53.232;8.252;2022-09-27T18:46:35;4.32;;;2.00;;
58242;SDS011;50118;53.232;8.252;2022-09-27T18:49:03;3.15;;;1.60;;
58242;SDS011;50118;53.232;8.252;2022-09-27T18:51:31;3.53;;;1.60;;
58242;SDS011;50118;53.232;8.252;2022-09-27T18:53:58;2.67;;;1.50;;
58242;SDS011;50118;53.232;8.252;2022-09-27T18:56:26;2.92;;;1.80;;
58242;SDS011;50118;53.232;8.252;2022-09-27T18:58:52;3.78;;;1.90;;
58242;SDS011;50118;53.232;8.252;2022-09-27T19:01:19;4.22;;;1.80;;
58242;SDS011;50118;53.232;8.252;2022-09-27T19:03:45;3.97;;;1.85;;
58242;SDS011;50118;53.232;8.252;2022-09-27T19:06:12;3.42;;;1.70;;
58242;SDS011;50118;53.232;8.252;2022-09-27T19:08:42;3.20;;;1.90;;
58242;SDS011;50118;53.232;8.252;2022-09-27T19:11:15;5.00;;;2.20;;
58242;SDS011;50118;53.232;8.252;2022-09-27T19:13:48;4.07;;;2.50;;
58242;SDS011;50118;53.232;8.252;2022-09-27T19:16:15;3.92;;;2.30;;
58242;SDS011;50118;53.232;8.252;2022-09-27T19:18:41;4.65;;;2.40;;
58242;SDS011;50118;53.232;8.252;2022-09-27T19:21:07;4.55;;;2.30;;